createdAt,value
2018-06-17T00:00:52.703Z,100484.30
2018-06-17T00:03:21.234Z,100483.28
2018-06-17T00:05:50.368Z,100482.67
2018-06-17T00:08:18.924Z,100488.78
2018-06-17T00:10:47.691Z,100487.25
2018-06-17T00:13:17.028Z,100489.94
2018-06-17T00:15:45.569Z,100485.05
2018-06-17T00:18:14.199Z,100484.52
2018-06-17T00:20:43.389Z,100478.98
2018-06-17T00:23:12.105Z,100478.90
2018-06-17T00:25:40.614Z,100486.55
2018-06-17T00:28:11.726Z,100478.98
2018-06-17T00:30:40.233Z,100486.50
2018-06-17T00:33:08.774Z,100487.31
2018-06-17T00:35:39.142Z,100490.12
2018-06-17T00:38:07.750Z,100490.42
2018-06-17T00:40:36.553Z,100493.48
2018-06-17T00:43:05.646Z,100497.77
2018-06-17T00:45:35.471Z,100498.75
2018-06-17T00:48:05.239Z,100500.25
2018-06-17T00:50:34.065Z,100505.24
2018-06-17T00:53:12.642Z,100504.61
2018-06-17T00:55:42.365Z,100505.27
2018-06-17T00:58:10.902Z,100504.78
2018-06-17T01:00:39.693Z,100500.44
2018-06-17T01:03:08.684Z,100502.51
2018-06-17T01:05:38.778Z,100508.42
2018-06-17T01:08:07.244Z,100503.23
2018-06-17T01:10:36.369Z,100516.98
2018-06-17T01:13:05.106Z,100512.72
2018-06-17T01:15:33.607Z,100513.05
2018-06-17T01:18:03.310Z,100513.23
2018-06-17T01:20:34.677Z,100517.48
2018-06-17T01:23:03.298Z,100517.80
2018-06-17T01:25:32.307Z,100512.82
2018-06-17T01:28:00.850Z,100512.66
2018-06-17T01:30:29.383Z,100517.73
2018-06-17T01:33:03.184Z,100522.38
2018-06-17T01:35:31.747Z,100521.53
2018-06-17T01:38:00.242Z,100524.13
2018-06-17T01:40:28.705Z,100527.57
2018-06-17T01:42:57.536Z,100536.16
2018-06-17T01:45:31.662Z,100535.83
2018-06-17T01:48:07.643Z,100551.06
2018-06-17T01:50:36.177Z,100562.08
2018-06-17T01:53:07.312Z,100561.06
2018-06-17T01:55:35.911Z,100564.20
2018-06-17T01:58:05.096Z,100560.98
2018-06-17T02:00:34.169Z,100561.89
2018-06-17T02:03:06.817Z,100565.48
2018-06-17T02:05:41.227Z,100559.34
2018-06-17T02:08:15.533Z,100572.09
2018-06-17T02:10:49.133Z,100575.23
2018-06-17T02:13:17.899Z,100567.70
2018-06-17T02:15:46.399Z,100572.16
2018-06-17T02:18:14.912Z,100567.73
2018-06-17T02:20:44.338Z,100564.48
2018-06-17T02:23:18.849Z,100556.96
2018-06-17T02:25:47.827Z,100567.02
2018-06-17T02:28:16.404Z,100566.48
2018-06-17T02:30:45.391Z,100568.02
2018-06-17T02:33:17.857Z,100566.59
2018-06-17T02:35:46.397Z,100568.63
2018-06-17T02:38:18.971Z,100565.87
2018-06-17T02:40:47.497Z,100571.09
2018-06-17T02:43:16.081Z,100572.84
2018-06-17T02:45:50.577Z,100570.91
2018-06-17T02:48:24.308Z,100581.16
2018-06-17T02:50:58.213Z,100589.23
2018-06-17T02:53:32.414Z,100584.09
2018-06-17T02:56:10.924Z,100573.22
2018-06-17T02:58:40.815Z,100571.73
2018-06-17T03:01:13.549Z,100566.32
2018-06-17T03:03:42.972Z,100570.66
2018-06-17T03:06:17.648Z,100574.75
2018-06-17T03:08:46.374Z,100578.60
2018-06-17T03:11:15.095Z,100588.02
2018-06-17T03:13:43.735Z,100591.52
2018-06-17T03:16:18.227Z,100583.73
2018-06-17T03:18:46.738Z,100586.74
2018-06-17T03:21:15.289Z,100585.30
2018-06-17T03:23:44.358Z,100581.67
2018-06-17T03:26:18.095Z,100588.23
2018-06-17T03:28:51.722Z,100597.23
2018-06-17T03:31:21.633Z,100594.15
2018-06-17T03:33:55.779Z,100598.74
2018-06-17T03:36:24.420Z,100599.81
2018-06-17T03:38:53.829Z,100594.15
2018-06-17T03:41:22.352Z,100596.56
2018-06-17T03:43:50.874Z,100603.56
2018-06-17T03:46:19.687Z,100597.51
2018-06-17T03:48:48.406Z,100614.13
2018-06-17T03:51:17.894Z,100614.53
2018-06-17T03:53:47.025Z,100619.02
2018-06-17T03:56:18.558Z,100626.11
2018-06-17T03:58:47.105Z,100629.91
2018-06-17T04:01:16.038Z,100633.11
2018-06-17T04:03:44.931Z,100632.09
2018-06-17T04:06:15.221Z,100628.63
2018-06-17T04:08:44.427Z,100632.94
2018-06-17T04:11:12.946Z,100634.90
2018-06-17T04:13:41.818Z,100633.17
2018-06-17T04:16:10.358Z,100631.86
2018-06-17T04:18:39.386Z,100643.75
2018-06-17T04:21:11.194Z,100639.15
2018-06-17T04:23:39.982Z,100639.83
2018-06-17T04:26:08.542Z,100634.64
2018-06-17T04:28:37.565Z,100639.26
2018-06-17T04:31:11.078Z,100639.42
2018-06-17T04:33:39.874Z,100643.83
2018-06-17T04:36:09.918Z,100649.16
2018-06-17T04:38:38.486Z,100643.47
2018-06-17T04:41:07.114Z,100644.17
2018-06-17T04:43:36.127Z,100644.70
2018-06-17T04:46:07.451Z,100645.84
2018-06-17T04:48:35.985Z,100648.13
2018-06-17T04:51:04.566Z,100651.96
2018-06-17T04:53:33.487Z,100654.04
2018-06-17T04:56:03.059Z,100650.67
2018-06-17T04:58:31.881Z,100657.91
2018-06-17T05:01:00.447Z,100663.01
2018-06-17T05:03:28.991Z,100664.94
2018-06-17T05:06:04.206Z,100674.47
2018-06-17T05:08:32.924Z,100674.70
2018-06-17T05:11:01.791Z,100682.84
2018-06-17T05:13:38.299Z,100682.92
2018-06-17T05:16:06.792Z,100685.17
2018-06-17T05:18:38.271Z,100687.38
2018-06-17T05:21:06.864Z,100688.61
2018-06-17T05:23:35.799Z,100684.20
2018-06-17T05:26:05.980Z,100689.08
2018-06-17T05:28:34.977Z,100682.78
2018-06-17T05:31:03.731Z,100677.66
2018-06-17T05:33:36.817Z,100685.30
2018-06-17T05:36:05.436Z,100682.23
2018-06-17T05:38:38.034Z,100686.59
2018-06-17T05:41:07.013Z,100682.42
2018-06-17T05:43:35.638Z,100688.27
2018-06-17T05:46:04.991Z,100683.20
2018-06-17T05:48:35.754Z,100691.95
2018-06-17T05:51:04.623Z,100692.38
2018-06-17T05:53:33.238Z,100685.96
2018-06-17T05:56:04.482Z,100694.52
2018-06-17T05:58:37.888Z,100702.30
2018-06-17T06:01:06.682Z,100696.98
2018-06-17T06:03:36.703Z,100703.28
2018-06-17T06:06:06.191Z,100704.61
2018-06-17T06:08:35.164Z,100708.78
2018-06-17T06:11:06.262Z,100705.56
2018-06-17T06:13:35.176Z,100699.03
2018-06-17T06:16:05.262Z,100708.42
2018-06-17T06:18:34.350Z,100705.80
2018-06-17T06:21:14.108Z,100705.48
2018-06-17T06:23:43.030Z,100707.41
2018-06-17T06:26:11.518Z,100705.95
2018-06-17T06:28:40.089Z,100710.98
2018-06-17T06:31:09.967Z,100707.61
2018-06-17T06:33:39.288Z,100705.86
2018-06-17T06:36:07.902Z,100711.79
2018-06-17T06:38:38.483Z,100707.84
2018-06-17T06:41:07.005Z,100701.74
2018-06-17T06:43:41.657Z,100707.27
2018-06-17T06:46:10.224Z,100707.23
2018-06-17T06:48:38.941Z,100711.90
2018-06-17T06:51:10.097Z,100708.77
2018-06-17T06:53:44.785Z,100711.48
2018-06-17T06:56:13.265Z,100715.42
2018-06-17T06:58:42.794Z,100720.10
2018-06-17T07:01:11.347Z,100716.27
2018-06-17T07:03:51.307Z,100711.11
2018-06-17T07:06:33.415Z,100716.08
2018-06-17T07:11:14.612Z,100719.45
2018-06-17T07:13:48.086Z,100716.27
2018-06-17T07:16:33.767Z,100708.91
2018-06-17T07:19:03.013Z,100713.35
2018-06-17T07:21:31.740Z,100715.44
2018-06-17T07:24:00.342Z,100711.08
2018-06-17T07:26:47.311Z,100709.98
2018-06-17T07:29:31.294Z,100721.37
2018-06-17T07:32:01.915Z,100724.95
2018-06-17T07:34:30.510Z,100729.94
2018-06-17T07:36:59.701Z,100737.72
2018-06-17T07:41:35.575Z,100732.23
2018-06-17T07:44:07.500Z,100743.72
2018-06-17T07:46:36.823Z,100744.08
2018-06-17T07:49:43.395Z,100741.88
2018-06-17T07:52:24.694Z,100739.66
2018-06-17T07:54:53.288Z,100739.78
2018-06-17T07:57:23.867Z,100730.85
2018-06-17T07:59:52.407Z,100732.36
2018-06-17T08:02:21.122Z,100727.64
2018-06-17T08:04:50.027Z,100732.95
2018-06-17T08:07:22.697Z,100732.15
2018-06-17T08:09:51.292Z,100736.70
2018-06-17T08:12:19.891Z,100740.35
2018-06-17T08:14:49.089Z,100736.92
2018-06-17T08:17:19.626Z,100732.58
2018-06-17T08:19:48.260Z,100736.72
2018-06-17T08:22:16.798Z,100731.98
2018-06-17T08:24:48.096Z,100723.80
2018-06-17T08:27:16.769Z,100722.73
2018-06-17T08:29:47.036Z,100723.47
2018-06-17T08:32:15.859Z,100726.33
2018-06-17T08:34:44.641Z,100722.38
2018-06-17T08:37:13.237Z,100726.75
2018-06-17T08:39:42.398Z,100728.87
2018-06-17T08:42:10.947Z,100731.89
2018-06-17T08:44:39.724Z,100732.06
2018-06-17T08:47:08.941Z,100734.73
2018-06-17T08:49:37.492Z,100737.97
2018-06-17T08:52:06.445Z,100744.08
2018-06-17T08:54:35.638Z,100739.95
2018-06-17T08:57:04.285Z,100733.95
2018-06-17T08:59:33.016Z,100734.81
2018-06-17T09:02:02.963Z,100735.89
2018-06-17T09:04:31.582Z,100732.54
2018-06-17T09:07:00.284Z,100733.03
2018-06-17T09:09:29.058Z,100732.08
2018-06-17T09:11:57.529Z,100739.98
2018-06-17T09:14:26.075Z,100737.33
2018-06-17T09:16:54.970Z,100737.98
2018-06-17T09:19:23.567Z,100740.64
2018-06-17T09:21:52.247Z,100739.91
2018-06-17T09:24:21.448Z,100737.70
2018-06-17T09:26:50.031Z,100735.66
2018-06-17T09:29:24.206Z,100736.35
2018-06-17T09:31:52.902Z,100733.47
2018-06-17T09:34:21.410Z,100726.41
2018-06-17T09:36:51.123Z,100729.91
2018-06-17T09:39:19.625Z,100729.69
2018-06-17T09:41:48.188Z,100718.71
2018-06-17T09:44:17.314Z,100720.59
2018-06-17T09:46:45.992Z,100724.21
2018-06-17T09:49:14.535Z,100722.27
2018-06-17T09:51:45.027Z,100725.30
2018-06-17T09:54:13.604Z,100718.50
2018-06-17T09:56:46.727Z,100716.81
2018-06-17T09:59:18.832Z,100721.20
2018-06-17T10:01:47.660Z,100720.52
2018-06-17T10:04:16.206Z,100721.86
2018-06-17T10:06:45.169Z,100721.04
2018-06-17T10:09:13.742Z,100728.08
2018-06-17T10:11:43.094Z,100727.77
2018-06-17T10:14:13.007Z,100726.58
2018-06-17T10:16:42.079Z,100734.47
2018-06-17T10:19:10.586Z,100730.28
2018-06-17T10:21:43.005Z,100724.15
2018-06-17T10:24:11.625Z,100742.41
2018-06-17T10:29:43.928Z,100727.63
2018-06-17T10:32:13.073Z,100723.52
2018-06-17T10:34:44.089Z,100720.11
2018-06-17T10:37:12.645Z,100716.72
2018-06-17T10:39:46.856Z,100711.37
2018-06-17T10:42:15.380Z,100706.75
2018-06-17T10:44:43.992Z,100710.75
2018-06-17T10:47:12.902Z,100716.81
2018-06-17T10:49:45.888Z,100711.13
2018-06-17T10:52:14.501Z,100710.91
2018-06-17T10:54:43.751Z,100712.94
2018-06-17T10:57:16.945Z,100706.03
2018-06-17T10:59:45.736Z,100705.52
2018-06-17T11:02:16.639Z,100703.38
2018-06-17T11:04:45.244Z,100701.99
2018-06-17T11:07:14.656Z,100706.70
2018-06-17T11:09:43.527Z,100706.70
2018-06-17T11:12:12.286Z,100699.48
2018-06-17T11:14:41.692Z,100696.38
2018-06-17T11:17:16.715Z,100695.50
2018-06-17T11:19:45.831Z,100699.28
2018-06-17T11:22:19.284Z,100690.34
2018-06-17T11:24:48.312Z,100688.78
2018-06-17T11:27:16.828Z,100692.59
2018-06-17T11:29:45.338Z,100693.25
2018-06-17T11:32:14.338Z,100686.34
2018-06-17T11:34:43.757Z,100688.22
2018-06-17T11:37:12.311Z,100690.05
2018-06-17T11:39:50.991Z,100684.89
2018-06-17T11:42:20.255Z,100693.31
2018-06-17T11:44:48.738Z,100690.22
2018-06-17T11:47:17.546Z,100687.70
2018-06-17T11:50:49.809Z,100698.99
2018-06-17T11:53:18.755Z,100703.35
2018-06-17T11:55:47.874Z,100705.58
2018-06-17T11:58:16.509Z,100700.66
2018-06-17T12:00:45.338Z,100702.02
2018-06-17T12:03:13.880Z,100701.16
2018-06-17T12:05:42.732Z,100697.47
2018-06-17T12:08:11.936Z,100698.25
2018-06-17T12:10:45.506Z,100697.73
2018-06-17T12:13:14.422Z,100689.86
2018-06-17T12:15:44.628Z,100689.30
2018-06-17T12:18:13.226Z,100689.89
2018-06-17T12:20:41.766Z,100689.74
2018-06-17T12:23:12.560Z,100685.69
2018-06-17T12:25:42.232Z,100677.65
2018-06-17T12:28:11.399Z,100680.81
2018-06-17T12:30:40.593Z,100679.59
2018-06-17T12:33:09.183Z,100668.63
2018-06-17T12:35:37.754Z,100667.11
2018-06-17T12:38:07.258Z,100674.10
2018-06-17T12:40:35.786Z,100670.08
2018-06-17T12:43:04.953Z,100678.93
2018-06-17T12:45:34.198Z,100679.53
2018-06-17T12:48:04.721Z,100671.99
2018-06-17T12:50:33.374Z,100669.31
2018-06-17T12:53:02.385Z,100669.31
2018-06-17T12:55:33.226Z,100668.95
2018-06-17T12:58:03.667Z,100672.39
2018-06-17T13:00:33.421Z,100670.88
2018-06-17T13:03:01.899Z,100674.75
2018-06-17T13:05:30.455Z,100677.11
2018-06-17T13:07:59.406Z,100680.25
2018-06-17T13:10:27.960Z,100673.36
2018-06-17T13:12:56.491Z,100664.33
2018-06-17T13:15:25.483Z,100666.33
2018-06-17T13:17:54.210Z,100662.84
2018-06-17T13:20:22.712Z,100672.62
2018-06-17T13:22:54.800Z,100673.81
2018-06-17T13:25:23.369Z,100678.94
2018-06-17T13:27:53.092Z,100679.41
2018-06-17T13:30:22.137Z,100675.24
2018-06-17T13:32:51.022Z,100680.05
2018-06-17T13:35:19.775Z,100673.11
2018-06-17T13:37:53.314Z,100675.28
2018-06-17T13:40:22.476Z,100677.61
2018-06-17T13:42:51.034Z,100672.11
2018-06-17T13:45:20.420Z,100683.47
2018-06-17T13:47:52.938Z,100672.88
2018-06-17T13:50:21.557Z,100677.61
2018-06-17T13:52:51.799Z,100682.17
2018-06-17T13:55:20.763Z,100680.25
2018-06-17T13:57:49.310Z,100677.45
2018-06-17T14:00:18.263Z,100676.12
2018-06-17T14:02:46.877Z,100676.63
2018-06-17T14:05:15.430Z,100684.52
2018-06-17T14:07:44.368Z,100683.65
2018-06-17T14:10:12.911Z,100681.44
2018-06-17T14:12:41.812Z,100679.66
2018-06-17T14:15:14.829Z,100672.49
2018-06-17T14:17:44.234Z,100680.92
2018-06-17T14:20:12.779Z,100685.86
2018-06-17T14:22:45.511Z,100682.31
2018-06-17T14:25:14.066Z,100681.14
2018-06-17T14:27:42.615Z,100684.36
2018-06-17T14:30:12.050Z,100691.23
2018-06-17T14:32:41.174Z,100679.66
2018-06-17T14:35:10.207Z,100693.61
2018-06-17T14:37:50.339Z,100685.38
2018-06-17T14:40:19.179Z,100685.53
2018-06-17T14:42:59.677Z,100684.52
2018-06-17T14:45:35.666Z,100686.52
2018-06-17T14:48:10.398Z,100683.50
2018-06-17T14:50:46.100Z,100693.92
2018-06-17T14:53:16.139Z,100688.56
2018-06-17T14:55:45.633Z,100686.69
2018-06-17T14:58:14.208Z,100689.48
2018-06-17T15:00:46.368Z,100692.11
2018-06-17T15:03:14.899Z,100693.36
2018-06-17T15:05:45.194Z,100688.57
2018-06-17T15:08:19.772Z,100688.52
2018-06-17T15:10:48.740Z,100689.41
2018-06-17T15:13:17.303Z,100685.47
2018-06-17T15:18:25.802Z,100689.36
2018-06-17T15:20:57.195Z,100687.05
2018-06-17T15:23:25.742Z,100686.72
2018-06-17T15:25:54.447Z,100683.16
2018-06-17T15:28:23.355Z,100691.81
2018-06-17T15:30:52.010Z,100683.22
2018-06-17T15:33:26.583Z,100682.73
2018-06-17T15:36:00.325Z,100687.85
2018-06-17T15:38:34.252Z,100684.67
2018-06-17T15:41:07.935Z,100686.52
2018-06-17T15:43:36.465Z,100688.25
2018-06-17T15:46:06.991Z,100684.55
2018-06-17T15:48:35.515Z,100689.23
2018-06-17T15:51:04.540Z,100690.23
2018-06-17T15:53:33.558Z,100687.67
2018-06-17T15:56:03.018Z,100696.06
2018-06-17T15:58:31.586Z,100688.48
2018-06-17T16:01:00.409Z,100699.55
2018-06-17T16:03:31.473Z,100696.36
2018-06-17T16:05:59.988Z,100705.16
2018-06-17T16:08:28.950Z,100711.16
2018-06-17T16:10:57.532Z,100714.95
2018-06-17T16:13:31.218Z,100713.65
2018-06-17T16:16:05.605Z,100718.08
2018-06-17T16:18:42.825Z,100714.43
2018-06-17T16:21:11.939Z,100717.47
2018-06-17T16:23:40.468Z,100720.56
2018-06-17T16:26:09.307Z,100722.13
2018-06-17T16:28:37.800Z,100719.79
2018-06-17T16:31:06.332Z,100725.23
2018-06-17T16:33:34.818Z,100714.34
2018-06-17T16:36:06.022Z,100722.75
2018-06-17T16:38:34.555Z,100730.42
2018-06-17T16:41:04.378Z,100728.34
2018-06-17T16:43:33.402Z,100734.63
2018-06-17T16:46:09.143Z,100728.94
2018-06-17T16:48:37.722Z,100728.47
2018-06-17T16:51:11.407Z,100726.16
2018-06-17T16:53:45.122Z,100721.17
2018-06-17T16:56:19.979Z,100722.01
2018-06-17T17:01:27.904Z,100724.95
2018-06-17T17:03:59.950Z,100723.80
2018-06-17T17:06:28.443Z,100724.63
2018-06-17T17:08:57.658Z,100729.83
2018-06-17T17:11:26.235Z,100735.53
2018-06-17T17:13:54.758Z,100738.55
2018-06-17T17:16:23.743Z,100744.31
2018-06-17T17:18:54.518Z,100744.15
2018-06-17T17:21:23.033Z,100754.53
2018-06-17T17:23:52.153Z,100754.25
2018-06-17T17:26:20.685Z,100761.02
2018-06-17T17:28:49.218Z,100758.87
2018-06-17T17:31:20.123Z,100771.73
2018-06-17T17:36:33.635Z,100770.98
2018-06-17T17:39:08.148Z,100778.47
2018-06-17T17:41:36.995Z,100778.31
2018-06-17T17:44:05.844Z,100774.09
2018-06-17T17:46:40.018Z,100781.50
2018-06-17T17:49:08.502Z,100778.98
2018-06-17T17:51:37.081Z,100782.23
2018-06-17T17:54:06.615Z,100789.31
2018-06-17T17:56:35.406Z,100801.94
2018-06-17T18:01:44.050Z,100802.38
2018-06-17T18:04:14.451Z,100807.25
2018-06-17T18:06:43.597Z,100812.10
2018-06-17T18:09:12.070Z,100814.66
2018-06-17T18:11:41.462Z,100817.37
2018-06-17T18:14:10.315Z,100814.89
2018-06-17T18:16:39.074Z,100822.42
2018-06-17T18:19:08.327Z,100826.24
2018-06-17T18:21:38.304Z,100817.22
2018-06-17T18:24:07.008Z,100819.50
2018-06-17T18:26:41.444Z,100823.52
2018-06-17T18:29:20.365Z,100823.05
2018-06-17T18:31:54.518Z,100832.70
2018-06-17T18:34:28.702Z,100831.34
2018-06-17T18:36:57.238Z,100831.59
2018-06-17T18:39:30.708Z,100832.55
2018-06-17T18:41:59.867Z,100833.06
2018-06-17T18:44:28.701Z,100830.53
2018-06-17T18:46:57.600Z,100833.48
2018-06-17T18:49:30.386Z,100833.00
2018-06-17T18:51:59.034Z,100835.91
2018-06-17T18:54:28.047Z,100836.33
2018-06-17T18:56:56.846Z,100842.93
2018-06-17T18:59:25.358Z,100842.38
2018-06-17T19:01:54.322Z,100847.89
2018-06-17T19:04:23.154Z,100839.44
2018-06-17T19:06:56.614Z,100854.80
2018-06-17T19:09:33.658Z,100854.89
2018-06-17T19:12:13.258Z,100851.79
2018-06-17T19:14:48.525Z,100860.33
2018-06-17T19:17:23.863Z,100858.30
2018-06-17T19:19:53.555Z,100859.49
2018-06-17T19:22:22.335Z,100866.70
2018-06-17T19:24:53.282Z,100873.92
2018-06-17T19:27:22.222Z,100872.33
2018-06-17T19:29:56.415Z,100870.45
2018-06-17T19:32:24.989Z,100872.98
2018-06-17T19:34:55.023Z,100874.80
2018-06-17T19:37:23.563Z,100877.25
2018-06-17T19:39:54.045Z,100876.55
2018-06-17T19:42:23.896Z,100878.81
2018-06-17T19:44:53.220Z,100880.97
2018-06-17T19:47:22.055Z,100882.23
2018-06-17T19:49:59.254Z,100895.03
2018-06-17T19:52:33.230Z,100889.69
2018-06-17T19:55:07.522Z,100894.40
2018-06-17T19:57:43.684Z,100903.78
2018-06-17T20:00:17.647Z,100906.12
2018-06-17T20:02:50.746Z,100901.52
2018-06-17T20:05:19.203Z,100906.92
2018-06-17T20:07:48.685Z,100903.29
2018-06-17T20:10:17.178Z,100906.75
2018-06-17T20:12:45.669Z,100895.99
2018-06-17T20:15:14.393Z,100893.09
2018-06-17T20:17:43.103Z,100893.47
2018-06-17T20:20:12.029Z,100897.95
2018-06-17T20:22:40.675Z,100898.10
2018-06-17T20:25:09.198Z,100897.16
2018-06-17T20:27:39.241Z,100904.75
2018-06-17T20:30:18.759Z,100910.34
2018-06-17T20:32:54.064Z,100910.08
2018-06-17T20:35:27.680Z,100903.97
2018-06-17T20:38:03.716Z,100909.15
2018-06-17T20:40:39.687Z,100907.67
2018-06-17T20:43:13.351Z,100902.24
2018-06-17T20:45:43.579Z,100908.27
2018-06-17T20:48:12.532Z,100917.50
2018-06-17T20:50:42.435Z,100918.58
2018-06-17T20:53:12.156Z,100918.44
2018-06-17T20:55:43.687Z,100921.08
2018-06-17T20:58:12.217Z,100931.61
2018-06-17T21:00:41.065Z,100927.61
2018-06-17T21:03:09.534Z,100935.28
2018-06-17T21:05:38.022Z,100936.92
2018-06-17T21:08:06.834Z,100944.32
2018-06-17T21:10:35.917Z,100946.60
2018-06-17T21:13:05.727Z,100953.19
2018-06-17T21:15:34.305Z,100953.71
2018-06-17T21:18:05.594Z,100961.97
2018-06-17T21:20:39.648Z,100965.05
2018-06-17T21:23:16.946Z,100962.91
2018-06-17T21:25:50.931Z,100965.20
2018-06-17T21:28:19.950Z,100963.87
2018-06-17T21:30:53.379Z,100969.11
2018-06-17T21:33:21.833Z,100970.58
2018-06-17T21:35:54.272Z,100976.97
2018-06-17T21:38:22.813Z,100973.16
2018-06-17T21:40:54.054Z,100970.73
2018-06-17T21:43:22.668Z,100974.73
2018-06-17T21:45:51.145Z,100971.21
2018-06-17T21:48:21.721Z,100977.89
2018-06-17T21:50:50.493Z,100976.83
2018-06-17T21:53:19.022Z,100976.64
2018-06-17T21:55:52.958Z,100979.69
2018-06-17T21:58:26.775Z,100987.11
2018-06-17T22:00:55.315Z,100988.59
2018-06-17T22:03:27.517Z,100989.72
2018-06-17T22:05:56.323Z,100998.47
2018-06-17T22:08:30.176Z,100992.63
2018-06-17T22:11:04.132Z,100999.91
2018-06-17T22:13:38.901Z,100998.20
2018-06-17T22:16:15.345Z,100997.88
2018-06-17T22:18:44.810Z,101005.40
2018-06-17T22:21:13.360Z,101007.21
2018-06-17T22:23:42.030Z,101002.38
2018-06-17T22:26:14.774Z,101004.70
2018-06-17T22:28:43.412Z,101005.69
2018-06-17T22:31:11.901Z,101008.83
2018-06-17T22:36:16.744Z,101016.84
2018-06-17T22:38:48.375Z,101018.30
2018-06-17T22:44:05.815Z,101019.25
2018-06-17T22:46:34.778Z,101029.79
2018-06-17T22:49:03.555Z,101038.99
2018-06-17T22:51:32.589Z,101033.29
2018-06-17T22:54:15.435Z,101025.80
2018-06-17T22:56:53.723Z,101020.84
2018-06-17T22:59:27.398Z,101017.22
2018-06-17T23:02:03.752Z,101026.41
2018-06-17T23:04:38.843Z,101028.84
2018-06-17T23:07:13.125Z,101030.77
2018-06-17T23:09:44.229Z,101026.20
2018-06-17T23:14:49.958Z,101023.06
2018-06-17T23:17:18.795Z,101022.80
2018-06-17T23:19:47.339Z,101022.58
2018-06-17T23:22:17.297Z,101018.31
2018-06-17T23:24:46.211Z,101022.31
2018-06-17T23:27:14.834Z,101021.36
2018-06-17T23:29:43.716Z,101035.53
2018-06-17T23:32:22.348Z,101030.75
2018-06-17T23:34:50.883Z,101040.94
2018-06-17T23:37:22.810Z,101041.52
2018-06-17T23:39:51.351Z,101043.92
2018-06-17T23:42:22.403Z,101040.31
2018-06-17T23:44:51.163Z,101040.06
2018-06-17T23:47:24.774Z,101042.59
2018-06-17T23:52:37.842Z,101045.98
2018-06-17T23:55:12.735Z,101045.48
2018-06-17T23:57:41.398Z,101047.55
